Time;durP1;ratioP1;P1;durP2;ratioP2;P2;SDS_P1;SDS_P2;PMS_P1;PMS_P2;Temp;Humidity;BMP_temperature;BMP_pressure;BME280_temperature;BME280_humidity;BME280_pressure;Samples;Min_cycle;Max_cycle;Signal;HPM_P1;HPM_P2
2024/02/14 00:00:01;;;;;;;4.40;1.60;;;6.30;99.90;;;9.33;97.12;100860.78;5026642;28;20447;-78
2024/02/14 00:02:27;;;;;;;4.78;1.83;;;6.30;99.90;;;9.06;98.24;100856.09;5031157;28;20382;-78
2024/02/14 00:04:53;;;;;;;3.85;1.70;;;6.30;99.90;;;9.04;98.96;100847.28;5013259;28;20072;-78
2024/02/14 00:07:22;;;;;;;4.38;1.70;;;6.30;99.90;;;9.02;100.00;100849.38;5030610;28;20041;-78
2024/02/14 00:09:48;;;;;;;4.20;1.85;;;6.30;99.90;;;9.15;99.40;100850.47;5012198;28;20046;-77
2024/02/14 00:12:14;;;;;;;4.00;1.60;;;6.40;99.90;;;9.17;100.00;100848.38;5029838;28;20064;-78
2024/02/14 00:14:40;;;;;;;5.35;1.90;;;6.30;99.90;;;9.42;98.83;100850.56;5043001;28;20042;-78
2024/02/14 00:17:07;;;;;;;4.28;1.98;;;6.30;99.90;;;9.57;98.71;100843.09;5029089;28;20033;-79
2024/02/14 00:19:32;;;;;;;5.35;1.60;;;6.30;99.90;;;9.44;97.72;100834.84;5046515;28;20041;-78
2024/02/14 00:21:58;;;;;;;3.22;1.70;;;6.20;99.90;;;9.34;99.13;100836.09;5030499;28;20057;-78
2024/02/14 00:24:24;;;;;;;7.32;2.15;;;6.20;99.90;;;9.16;99.03;100827.63;5012234;28;20056;-78
2024/02/14 00:26:50;;;;;;;5.05;1.83;;;6.20;99.90;;;9.46;97.30;100827.31;5030913;28;20037;-78
2024/02/14 00:29:16;;;;;;;5.05;1.92;;;6.20;99.90;;;9.54;97.37;100835.28;5030022;28;20041;-78
2024/02/14 00:31:44;;;;;;;4.32;1.50;;;6.20;99.90;;;9.57;96.32;100826.75;4978709;28;20467;-78
2024/02/14 00:34:10;;;;;;;4.25;1.50;;;6.20;99.90;;;9.83;95.56;100818.81;5027819;28;20033;-78
2024/02/14 00:36:36;;;;;;;3.53;1.77;;;6.20;99.90;;;9.70;96.50;100823.22;5031035;28;20090;-79
2024/02/14 00:39:02;;;;;;;3.72;1.60;;;6.30;99.90;;;9.81;95.61;100807.28;5031490;28;20029;-78
2024/02/14 00:41:29;;;;;;;2.88;1.70;;;6.40;99.90;;;9.95;95.46;100817.16;5030880;28;20116;-79
2024/02/14 00:43:57;;;;;;;3.80;1.70;;;6.40;99.90;;;9.92;94.73;100815.69;5029886;28;20132;-79
2024/02/14 00:46:23;;;;;;;3.78;2.22;;;6.40;99.90;;;9.74;96.12;100810.84;5007664;28;20103;-79
2024/02/14 00:48:49;;;;;;;6.00;1.90;;;6.40;99.90;;;9.44;99.44;100808.47;5030973;28;20066;-79
2024/02/14 00:51:15;;;;;;;5.65;1.85;;;6.30;99.90;;;9.26;100.00;100810.94;5031445;28;20105;-78
2024/02/14 00:53:40;;;;;;;5.65;1.83;;;6.30;99.90;;;9.04;100.00;100809.19;5030695;28;20037;-79
2024/02/14 00:56:07;;;;;;;4.30;1.70;;;6.30;99.90;;;9.12;100.00;100801.88;5031211;28;20035;-78
2024/02/14 00:58:32;;;;;;;3.63;1.80;;;6.30;99.90;;;9.38;100.00;100797.56;5029613;28;20370;-78
2024/02/14 01:00:58;;;;;;;2.72;1.65;;;6.30;99.90;;;9.49;100.00;100800.53;5029662;28;20045;-77
2024/02/14 01:03:24;;;;;;;3.95;1.73;;;6.30;99.90;;;9.32;100.00;100799.22;5031375;28;20045;-78
2024/02/14 01:05:50;;;;;;;4.30;1.90;;;6.20;99.90;;;9.29;100.00;100788.75;5030308;28;20033;-78
2024/02/14 01:08:17;;;;;;;5.90;1.95;;;6.30;99.90;;;9.56;100.00;100789.66;5029435;28;20481;-77
2024/02/14 01:10:42;;;;;;;5.45;1.92;;;6.30;99.90;;;9.50;100.00;100774.13;5009386;28;20424;-78
2024/02/14 01:13:08;;;;;;;5.10;1.88;;;6.20;99.90;;;9.38;100.00;100783.94;5027764;28;20103;-77
2024/02/14 01:15:34;;;;;;;5.47;2.10;;;6.20;99.90;;;9.12;100.00;100775.47;5044422;28;20392;-77
2024/02/14 01:18:00;;;;;;;7.95;2.00;;;6.30;99.90;;;9.03;100.00;100771.28;5030556;28;20047;-77
2024/02/14 01:20:26;;;;;;;4.35;1.85;;;6.30;99.90;;;9.02;100.00;100772.31;5030481;28;20034;-78
2024/02/14 01:22:52;;;;;;;6.05;1.75;;;6.30;99.90;;;9.09;100.00;100758.75;5028064;28;20037;-77
2024/02/14 01:25:18;;;;;;;4.72;1.80;;;6.30;99.90;;;9.12;100.00;100763.78;5029023;28;20076;-78
2024/02/14 01:27:44;;;;;;;5.57;1.80;;;6.40;99.90;;;9.51;100.00;100773.06;5029824;28;20037;-77
2024/02/14 01:30:11;;;;;;;3.80;1.60;;;6.40;99.90;;;9.39;100.00;100758.41;5044919;28;20481;-77
2024/02/14 01:32:37;;;;;;;6.10;1.75;;;6.40;99.90;;;9.24;100.00;100758.56;5029507;28;20046;-77
2024/02/14 01:35:03;;;;;;;3.72;1.70;;;6.40;99.90;;;9.23;100.00;100756.91;5030006;28;20025;-77
2024/02/14 01:37:30;;;;;;;7.93;2.35;;;6.40;99.90;;;9.20;100.00;100763.56;5029066;28;20038;-77
2024/02/14 01:39:56;;;;;;;4.18;1.88;;;6.40;99.90;;;9.22;100.00;100758.75;5028773;28;20068;-77
2024/02/14 01:42:21;;;;;;;4.80;1.90;;;6.40;99.90;;;9.15;100.00;100749.75;5032402;28;20492;-77
2024/02/14 01:44:48;;;;;;;5.07;1.80;;;6.40;99.90;;;9.39;100.00;100751.06;5029360;28;20049;-77
2024/02/14 01:47:14;;;;;;;3.47;1.90;;;6.40;99.90;;;9.49;100.00;100750.66;5032425;28;20493;-77
2024/02/14 01:49:44;;;;;;;4.15;1.98;;;6.50;99.90;;;9.33;100.00;100739.13;5032665;28;20480;-77
2024/02/14 01:52:10;;;;;;;3.53;1.90;;;6.50;99.90;;;9.45;100.00;100749.41;5033689;28;20026;-77
2024/02/14 01:54:36;;;;;;;4.50;2.20;;;6.60;99.90;;;9.71;100.00;100736.84;5029215;28;20423;-77
2024/02/14 01:57:03;;;;;;;3.25;1.63;;;6.60;99.90;;;9.51;100.00;100734.94;5033236;28;20033;-77
2024/02/14 01:59:29;;;;;;;4.13;1.90;;;6.60;99.90;;;9.48;100.00;100738.94;5033220;28;20151;-77
2024/02/14 02:01:55;;;;;;;5.70;1.90;;;6.70;99.90;;;9.55;100.00;100733.50;5034109;28;20029;-78
2024/02/14 02:04:21;;;;;;;5.80;2.00;;;6.80;99.90;;;9.56;100.00;100729.72;5032497;28;20048;-78
2024/02/14 02:06:47;;;;;;;5.07;1.90;;;6.80;99.90;;;9.54;100.00;100726.34;5030721;28;20077;-78
2024/02/14 02:09:13;;;;;;;4.07;1.88;;;6.90;99.90;;;9.62;100.00;100718.00;5033060;28;20041;-78
2024/02/14 02:12:00;;;;;;;4.82;1.88;;;6.90;99.90;;;9.60;100.00;100717.38;5032984;28;20091;-78
2024/02/14 02:14:26;;;;;;;4.25;1.65;;;6.90;99.90;;;9.64;100.00;100726.78;5032217;28;20052;-78
2024/02/14 02:16:53;;;;;;;3.63;1.85;;;6.90;99.90;;;9.72;100.00;100714.84;5033253;28;20064;-78
2024/02/14 02:19:18;;;;;;;8.73;2.00;;;6.80;99.90;;;9.86;99.93;100714.84;5031371;28;20045;-78
2024/02/14 02:21:46;;;;;;;4.65;1.90;;;6.90;99.90;;;9.99;100.00;100714.84;5030746;28;20785;-78
2024/02/14 02:24:12;;;;;;;6.93;2.10;;;6.90;99.90;;;9.68;100.00;100715.47;5031732;28;20037;-78
2024/02/14 02:26:37;;;;;;;5.93;1.83;;;6.80;99.90;;;9.75;100.00;100717.16;5031991;28;20040;-78
2024/02/14 02:29:05;;;;;;;5.63;2.20;;;6.70;99.90;;;9.57;100.00;100712.34;5032538;28;20056;-77
2024/02/14 02:31:30;;;;;;;5.07;1.93;;;6.60;99.90;;;9.18;100.00;100717.53;5032589;28;20080;-77
2024/02/14 02:33:57;;;;;;;5.03;2.20;;;6.50;99.90;;;9.17;100.00;100715.00;5032567;28;20117;-77
2024/02/14 02:36:24;;;;;;;4.55;1.90;;;6.30;99.90;;;9.08;100.00;100711.63;5048301;28;20039;-78
2024/02/14 02:38:50;;;;;;;4.78;2.25;;;6.30;99.90;;;8.84;100.00;100711.13;5032333;28;20116;-78
2024/02/14 02:41:16;;;;;;;5.25;2.55;;;6.20;99.90;;;8.67;100.00;100702.47;5031521;28;20482;-78
2024/02/14 02:43:42;;;;;;;8.40;3.47;;;6.20;99.90;;;8.60;100.00;100705.16;5032009;28;20037;-78
2024/02/14 02:46:11;;;;;;;6.90;2.40;;;6.10;99.90;;;8.57;100.00;100691.97;5042879;28;20147;-79
2024/02/14 02:48:37;;;;;;;4.80;2.58;;;6.00;99.90;;;8.64;100.00;100683.84;5024046;28;20479;-78
2024/02/14 02:51:03;;;;;;;6.07;2.58;;;5.90;99.90;;;8.52;100.00;100678.16;5015800;28;20030;-77
2024/02/14 02:53:29;;;;;;;4.43;2.40;;;5.90;99.90;;;8.56;100.00;100681.31;5013465;28;20120;-78
2024/02/14 02:55:57;;;;;;;8.60;3.15;;;5.90;99.90;;;8.51;100.00;100670.22;5015251;28;20042;-78
2024/02/14 02:58:22;;;;;;;6.13;2.60;;;5.90;99.90;;;8.58;100.00;100669.19;5032606;28;20040;-78
2024/02/14 03:00:53;;;;;;;7.28;3.03;;;5.90;99.90;;;8.59;100.00;100664.59;5032324;28;20029;-78
2024/02/14 03:03:19;;;;;;;6.22;2.85;;;6.00;99.90;;;8.64;100.00;100664.81;5028607;28;20055;-79
2024/02/14 03:05:45;;;;;;;10.50;3.80;;;6.00;99.90;;;8.72;100.00;100655.63;5014519;28;20041;-78
2024/02/14 03:08:15;;;;;;;8.38;2.75;;;6.10;99.90;;;8.76;100.00;100652.31;5032775;28;20038;-78
2024/02/14 03:10:41;;;;;;;7.28;3.00;;;6.00;99.90;;;8.71;100.00;100657.50;5014114;28;20448;-79
2024/02/14 03:13:13;;;;;;;5.72;3.22;;;6.00;99.90;;;8.75;100.00;100647.94;5032649;28;20049;-75
2024/02/14 03:15:39;;;;;;;7.35;3.08;;;6.00;99.90;;;8.80;100.00;100639.13;5033402;28;20037;-76
2024/02/14 03:18:09;;;;;;;6.20;2.78;;;6.00;99.90;;;8.60;100.00;100653.50;5035516;28;20044;-78
2024/02/14 03:20:36;;;;;;;7.10;3.10;;;6.10;99.90;;;8.63;100.00;100642.25;5032679;28;20040;-77
2024/02/14 03:23:03;;;;;;;7.20;3.47;;;6.10;99.90;;;8.71;100.00;100641.19;5024575;28;20124;-77
2024/02/14 03:25:29;;;;;;;8.60;3.22;;;6.00;99.90;;;8.59;100.00;100637.41;5031070;28;20061;-77
2024/02/14 03:27:57;;;;;;;8.57;3.10;;;6.00;99.90;;;8.76;100.00;100637.88;5030929;28;20497;-77
2024/02/14 03:30:23;;;;;;;10.18;3.15;;;6.00;99.90;;;8.71;100.00;100632.22;5032312;28;20061;-77
2024/02/14 03:32:50;;;;;;;7.43;3.13;;;6.00;99.90;;;8.98;100.00;100638.53;5031210;28;20488;-77
2024/02/14 03:35:17;;;;;;;6.50;2.63;;;6.00;99.90;;;8.70;100.00;100615.03;5031218;28;20425;-77
2024/02/14 03:37:48;;;;;;;9.25;3.10;;;6.10;99.90;;;8.97;100.00;100625.97;5032023;28;20052;-78
2024/02/14 03:40:14;;;;;;;7.25;2.60;;;6.10;99.90;;;8.98;100.00;100624.94;5031528;28;20109;-77
2024/02/14 03:42:40;;;;;;;4.93;2.53;;;6.20;99.90;;;9.09;100.00;100615.31;5046946;28;20132;-76
2024/02/14 03:45:07;;;;;;;7.00;2.83;;;6.20;99.90;;;9.19;100.00;100610.31;5032258;28;20465;-77
2024/02/14 03:47:33;;;;;;;9.80;2.72;;;6.30;99.90;;;9.06;100.00;100611.16;5013488;28;20045;-77
2024/02/14 03:50:02;;;;;;;7.38;2.67;;;6.30;99.90;;;9.28;100.00;100608.22;5012780;28;20087;-76
2024/02/14 03:52:28;;;;;;;6.68;3.05;;;6.30;99.90;;;9.33;100.00;100605.72;5031173;28;20040;-77
2024/02/14 03:54:53;;;;;;;5.22;2.75;;;6.30;99.90;;;9.33;100.00;100602.13;5026681;28;20397;-77
2024/02/14 03:57:19;;;;;;;8.90;2.65;;;6.30;99.90;;;9.45;100.00;100600.47;5030831;28;20053;-77
2024/02/14 03:59:46;;;;;;;8.90;2.90;;;6.30;99.90;;;9.19;100.00;100599.44;5031239;28;20042;-77
2024/02/14 04:02:13;;;;;;;5.75;3.08;;;6.30;99.90;;;9.33;100.00;100604.84;5031132;28;20029;-77
2024/02/14 04:04:42;;;;;;;6.35;2.72;;;6.40;99.90;;;9.17;100.00;100598.81;5030920;28;20132;-77
2024/02/14 04:07:08;;;;;;;7.78;3.35;;;6.40;99.90;;;9.31;100.00;100591.47;5030066;28;20382;-78
2024/02/14 04:09:35;;;;;;;6.95;2.42;;;6.50;99.90;;;9.13;100.00;100591.25;5027737;28;20485;-78
2024/02/14 04:12:01;;;;;;;6.13;2.72;;;6.50;99.90;;;9.44;100.00;100587.91;5029882;28;20042;-77
2024/02/14 04:14:27;;;;;;;7.65;2.78;;;6.60;99.90;;;9.61;100.00;100595.63;5030285;28;20056;-78
2024/02/14 04:16:53;;;;;;;6.13;2.60;;;6.70;99.90;;;9.79;100.00;100587.63;5031711;28;20041;-77
2024/02/14 04:19:18;;;;;;;5.70;2.38;;;6.70;99.90;;;9.95;100.00;100592.84;5030986;28;20045;-78
2024/02/14 04:21:45;;;;;;;6.72;2.78;;;6.70;99.90;;;9.96;100.00;100589.91;5030562;28;20045;-78
2024/02/14 04:24:11;;;;;;;6.20;2.47;;;6.80;99.90;;;9.60;100.00;100567.56;5025891;28;20049;-77
2024/02/14 04:26:37;;;;;;;6.18;2.50;;;6.90;99.90;;;9.69;100.00;100584.53;5029469;28;20041;-78
2024/02/14 04:29:03;;;;;;;5.80;2.40;;;6.90;99.90;;;9.75;100.00;100588.25;5028276;28;20420;-78
2024/02/14 04:31:31;;;;;;;7.00;2.53;;;6.90;99.90;;;9.57;100.00;100580.75;5026657;28;20064;-78
2024/02/14 04:33:58;;;;;;;5.88;2.80;;;6.80;99.90;;;9.55;100.00;100585.59;5028259;28;20076;-78
2024/02/14 04:36:24;;;;;;;7.30;3.00;;;6.70;99.90;;;9.30;100.00;100578.91;5030474;28;20087;-77
2024/02/14 04:38:51;;;;;;;5.70;2.42;;;6.60;99.90;;;9.45;100.00;100581.41;5030053;28;20045;-77
2024/02/14 04:41:17;;;;;;;4.60;2.25;;;6.60;99.90;;;9.28;100.00;100572.00;5011424;28;20034;-77
2024/02/14 04:43:44;;;;;;;5.20;2.60;;;6.50;99.90;;;9.44;100.00;100584.34;5030200;28;20668;-77
2024/02/14 04:46:09;;;;;;;6.05;3.08;;;6.50;99.90;;;9.44;100.00;100579.75;5028413;28;20037;-77
2024/02/14 04:48:37;;;;;;;7.38;3.25;;;6.50;99.90;;;9.43;100.00;100579.94;5028872;28;22141;-78
2024/02/14 04:51:04;;;;;;;6.45;2.90;;;6.50;99.90;;;9.31;100.00;100575.13;5028626;28;20079;-77
2024/02/14 04:53:31;;;;;;;5.90;2.70;;;6.40;99.90;;;9.41;100.00;100569.25;5008796;28;20043;-78
2024/02/14 04:55:57;;;;;;;7.40;3.10;;;6.40;99.90;;;9.59;100.00;100579.50;5028839;28;20417;-77
2024/02/14 04:58:23;;;;;;;7.05;3.17;;;6.40;99.90;;;9.38;100.00;100575.13;5029424;28;20112;-80
2024/02/14 05:00:48;;;;;;;10.27;3.25;;;6.30;99.90;;;9.33;100.00;100572.19;5029892;28;20038;-79
2024/02/14 05:03:15;;;;;;;6.22;3.13;;;6.40;99.90;;;9.29;100.00;100571.78;5028730;28;20060;-78
2024/02/14 05:05:41;;;;;;;6.50;3.35;;;6.40;99.90;;;9.53;100.00;100574.88;5029315;28;20044;-78
2024/02/14 05:08:07;;;;;;;7.97;3.28;;;6.40;99.90;;;9.56;100.00;100569.03;5029383;28;20099;-77
2024/02/14 05:10:33;;;;;;;8.13;3.63;;;6.40;99.90;;;9.49;100.00;100565.47;5029628;28;20029;-77
2024/02/14 05:12:59;;;;;;;5.47;2.90;;;6.40;99.90;;;9.66;100.00;100562.31;5011796;28;20053;-77
2024/02/14 05:15:25;;;;;;;7.50;3.20;;;6.40;99.90;;;9.73;100.00;100557.66;5026321;28;20045;-78
2024/02/14 05:17:52;;;;;;;6.63;3.30;;;6.40;99.90;;;9.62;100.00;100564.59;5028847;28;20087;-79
2024/02/14 05:20:18;;;;;;;7.50;3.35;;;6.50;99.90;;;9.67;100.00;100553.09;5029218;28;20050;-79
2024/02/14 05:22:44;;;;;;;10.73;3.50;;;6.40;99.90;;;9.66;100.00;100565.03;5044764;28;20034;-79
2024/02/14 05:25:09;;;;;;;7.55;3.40;;;6.50;99.90;;;9.72;100.00;100564.16;5021825;28;20045;-78
2024/02/14 05:27:36;;;;;;;12.27;4.10;;;6.50;99.90;;;9.87;100.00;100563.91;5026224;28;20105;-78
2024/02/14 05:30:05;;;;;;;7.35;3.58;;;6.50;99.90;;;9.81;100.00;100557.44;5024046;28;20036;-79
2024/02/14 05:32:34;;;;;;;8.07;3.13;;;6.50;99.90;;;9.50;100.00;100570.72;5023372;28;20045;-79
2024/02/14 05:35:01;;;;;;;6.65;3.47;;;6.60;99.90;;;9.82;100.00;100563.72;5030059;28;20473;-79
2024/02/14 05:37:27;;;;;;;6.93;3.58;;;6.60;99.90;;;9.72;100.00;100559.56;5029467;28;20044;-78
2024/02/14 05:39:54;;;;;;;9.82;3.58;;;6.60;99.90;;;9.82;100.00;100563.72;5029820;28;20052;-78
2024/02/14 05:42:21;;;;;;;8.05;3.40;;;6.60;99.90;;;9.75;100.00;100553.69;5029168;28;20408;-77
2024/02/14 05:44:47;;;;;;;8.95;3.88;;;6.60;99.90;;;9.55;100.00;100548.31;5029049;28;20120;-76
2024/02/14 05:47:13;;;;;;;6.97;3.42;;;6.70;99.90;;;9.90;100.00;100552.59;5023943;28;20034;-78
2024/02/14 05:49:40;;;;;;;8.77;3.60;;;6.70;99.90;;;9.82;100.00;100545.50;5030231;28;20120;-77
2024/02/14 05:52:07;;;;;;;7.25;3.05;;;6.70;99.90;;;9.88;100.00;100543.78;5028122;28;20033;-77
2024/02/14 05:54:33;;;;;;;7.85;3.38;;;6.70;99.90;;;9.75;100.00;100540.06;5025867;28;20041;-78
2024/02/14 05:57:01;;;;;;;10.05;3.90;;;6.70;99.90;;;9.84;100.00;100540.69;5026550;28;20170;-77
2024/02/14 05:59:26;;;;;;;6.73;3.60;;;6.70;99.90;;;9.80;100.00;100542.13;5027295;28;20045;-78
2024/02/14 06:01:53;;;;;;;9.32;3.30;;;6.70;99.90;;;9.91;100.00;100543.38;5027568;28;20049;-78
2024/02/14 06:04:18;;;;;;;10.07;3.50;;;6.80;99.90;;;10.03;100.00;100544.38;5027035;28;20084;-78
2024/02/14 06:06:44;;;;;;;8.20;3.30;;;6.80;99.90;;;10.19;100.00;100542.19;5022279;28;20119;-79
2024/02/14 06:09:11;;;;;;;6.50;3.45;;;6.80;99.90;;;10.02;100.00;100541.84;5029194;28;20440;-78
2024/02/14 06:11:40;;;;;;;6.82;3.65;;;6.80;99.90;;;10.10;100.00;100554.41;5026701;28;20065;-80
2024/02/14 06:14:07;;;;;;;11.00;3.65;;;6.80;99.90;;;10.15;100.00;100557.31;5028180;28;20037;-80
2024/02/14 06:16:34;;;;;;;8.95;3.72;;;6.80;99.90;;;10.17;100.00;100556.06;5027999;28;20029;-78
2024/02/14 06:19:00;;;;;;;7.47;3.80;;;6.90;99.90;;;10.11;100.00;100551.50;5029776;28;20087;-78
2024/02/14 06:21:26;;;;;;;10.27;4.03;;;6.90;99.90;;;10.17;100.00;100545.16;5026115;28;20045;-78
2024/02/14 06:23:53;;;;;;;8.40;3.47;;;6.90;99.90;;;10.28;100.00;100557.28;5027399;28;20106;-79
2024/02/14 06:26:19;;;;;;;8.20;3.83;;;6.90;99.90;;;10.13;100.00;100545.78;5029695;28;20491;-78
2024/02/14 06:28:45;;;;;;;7.03;3.92;;;7.00;99.90;;;10.08;100.00;100552.75;5029732;28;20157;-78
2024/02/14 06:31:11;;;;;;;6.05;3.85;;;7.00;99.90;;;10.12;100.00;100563.22;5031950;28;20049;-76
2024/02/14 06:33:37;;;;;;;10.13;4.40;;;7.00;99.90;;;10.14;100.00;100567.41;5029730;28;20033;-78
2024/02/14 06:36:03;;;;;;;8.43;3.55;;;7.00;99.90;;;10.06;100.00;100559.44;5032372;28;20037;-77
2024/02/14 06:38:31;;;;;;;9.00;3.80;;;7.00;99.90;;;10.12;100.00;100565.94;5032041;28;20473;-76
2024/02/14 06:40:57;;;;;;;5.85;3.22;;;7.00;99.90;;;10.18;100.00;100562.34;5033457;28;20064;-77
2024/02/14 06:43:22;;;;;;;7.65;3.60;;;7.10;99.90;;;10.14;100.00;100558.38;5032331;28;20447;-77
2024/02/14 06:45:48;;;;;;;7.13;3.78;;;7.10;99.90;;;10.29;100.00;100564.41;5031751;28;20033;-77
2024/02/14 06:48:14;;;;;;;8.27;3.78;;;7.10;99.90;;;10.31;100.00;100569.63;5032911;28;20682;-78
2024/02/14 06:50:39;;;;;;;7.63;3.72;;;7.10;99.90;;;10.41;100.00;100572.78;5032878;28;20550;-76
2024/02/14 06:53:06;;;;;;;8.82;3.65;;;7.10;99.90;;;10.41;100.00;100580.09;5029701;28;20042;-77
2024/02/14 06:55:32;;;;;;;6.18;3.65;;;7.10;99.90;;;10.29;100.00;100579.91;5032322;28;20389;-77
2024/02/14 06:57:59;;;;;;;11.85;3.60;;;7.10;99.90;;;10.39;100.00;100574.00;5030352;28;20037;-77
2024/02/14 07:00:25;;;;;;;5.53;3.38;;;7.10;99.90;;;10.30;100.00;100581.59;5029339;28;20047;-78
2024/02/14 07:02:51;;;;;;;5.30;3.03;;;7.10;99.90;;;10.29;100.00;100572.59;5016214;28;20049;-77
2024/02/14 07:05:16;;;;;;;7.97;3.30;;;7.10;99.90;;;10.27;100.00;100582.03;5011773;28;20377;-77
2024/02/14 07:07:42;;;;;;;7.80;3.42;;;7.20;99.90;;;10.25;100.00;100581.41;5028843;28;20071;-77
2024/02/14 07:10:09;;;;;;;8.10;3.35;;;7.20;99.90;;;10.21;100.00;100579.09;5029905;28;20033;-76
2024/02/14 07:12:36;;;;;;;6.38;2.72;;;7.20;99.90;;;10.48;100.00;100580.94;5028248;28;20072;-76
2024/02/14 07:15:04;;;;;;;7.30;3.27;;;7.20;99.90;;;10.24;100.00;100580.59;5030380;28;20029;-77
2024/02/14 07:17:30;;;;;;;5.95;3.03;;;7.20;99.90;;;10.57;100.00;100579.59;5030476;28;20029;-77
2024/02/14 07:19:56;;;;;;;5.60;3.10;;;7.30;99.90;;;10.25;100.00;100582.25;5030301;28;20064;-76
2024/02/14 07:22:22;;;;;;;8.05;3.10;;;7.30;99.90;;;10.24;100.00;100572.41;5031021;28;20044;-75
2024/02/14 07:24:48;;;;;;;8.15;2.88;;;7.40;99.90;;;10.40;100.00;100573.81;5031891;28;20377;-76
2024/02/14 07:27:16;;;;;;;5.70;3.08;;;7.30;99.90;;;10.54;100.00;100587.38;5047373;28;20041;-77
2024/02/14 07:29:42;;;;;;;5.90;2.78;;;7.30;99.90;;;10.53;100.00;100588.44;5025117;28;20493;-77
2024/02/14 07:32:08;;;;;;;6.07;3.03;;;7.30;99.90;;;10.41;100.00;100597.31;5032387;28;20034;-77
2024/02/14 07:34:33;;;;;;;5.95;3.17;;;7.30;99.90;;;10.53;100.00;100588.44;5009840;28;20500;-77
2024/02/14 07:36:59;;;;;;;4.40;3.15;;;7.30;99.90;;;10.45;100.00;100590.38;5031710;28;20033;-78
2024/02/14 07:39:25;;;;;;;5.15;2.78;;;7.40;99.90;;;10.61;100.00;100599.09;5028516;28;20679;-77
2024/02/14 07:41:51;;;;;;;4.65;2.47;;;7.40;99.90;;;10.53;100.00;100597.47;5032948;28;20044;-77
2024/02/14 07:44:17;;;;;;;6.85;2.72;;;7.40;99.90;;;10.56;100.00;100596.19;5035275;28;20129;-76
2024/02/14 07:46:43;;;;;;;7.00;2.55;;;7.40;99.90;;;10.62;100.00;100606.25;5029764;28;20413;-77
2024/02/14 07:49:09;;;;;;;6.13;2.80;;;7.50;99.90;;;10.61;100.00;100599.09;5029200;28;20065;-77
2024/02/14 07:51:38;;;;;;;5.88;3.05;;;7.50;99.90;;;10.67;100.00;100597.38;4994545;28;20030;-76
2024/02/14 07:54:06;;;;;;;7.65;3.15;;;7.50;99.90;;;10.72;100.00;100592.94;5010789;28;20037;-76
2024/02/14 07:56:32;;;;;;;4.63;2.67;;;7.50;99.90;;;10.54;100.00;100587.38;5030159;28;20045;-77
2024/02/14 07:58:58;;;;;;;4.18;2.47;;;7.50;99.90;;;10.78;100.00;100591.25;5030529;28;20033;-77
2024/02/14 08:01:25;;;;;;;5.03;2.65;;;7.50;99.90;;;10.71;100.00;100596.72;5031634;28;20073;-78
2024/02/14 08:03:50;;;;;;;5.82;2.60;;;7.50;99.90;;;10.43;100.00;100610.72;5031660;28;20041;-77
2024/02/14 08:06:17;;;;;;;5.38;3.15;;;7.60;99.90;;;10.76;100.00;100613.28;5013400;28;20041;-78
2024/02/14 08:08:43;;;;;;;5.47;2.58;;;7.60;99.90;;;11.02;100.00;100605.16;5031767;28;20040;-77
2024/02/14 08:11:09;;;;;;;5.05;2.60;;;7.60;99.90;;;11.14;100.00;100613.44;5031004;28;20523;-77
2024/02/14 08:13:36;;;;;;;5.47;2.50;;;7.60;99.90;;;10.96;100.00;100616.94;5031335;28;20052;-78
2024/02/14 08:16:02;;;;;;;6.80;2.40;;;7.70;99.90;;;11.21;100.00;100600.59;5031271;28;20042;-77
2024/02/14 08:18:28;;;;;;;5.00;2.80;;;7.70;99.90;;;11.14;100.00;100619.75;5031661;28;20303;-77
2024/02/14 08:20:54;;;;;;;3.80;2.05;;;7.70;99.90;;;11.07;100.00;100614.34;5029661;28;20045;-77
2024/02/14 08:23:20;;;;;;;5.45;2.30;;;7.80;99.90;;;11.04;100.00;100625.69;5030955;28;20037;-78
2024/02/14 08:25:46;;;;;;;7.00;2.30;;;7.80;99.90;;;11.13;100.00;100615.34;5030216;28;20033;-77
2024/02/14 08:28:12;;;;;;;5.15;2.40;;;7.80;99.90;;;10.94;100.00;100628.91;5030861;28;20496;-76
2024/02/14 08:30:38;;;;;;;4.43;2.42;;;7.80;99.90;;;10.65;100.00;100628.44;5030841;28;20029;-78
2024/02/14 08:33:03;;;;;;;4.25;2.47;;;7.80;99.90;;;10.95;100.00;100627.03;5013370;28;20488;-78
2024/02/14 08:35:29;;;;;;;5.50;1.90;;;7.80;99.90;;;10.99;100.00;100619.22;5030841;28;20492;-78
2024/02/14 08:37:55;;;;;;;5.00;2.05;;;7.90;99.90;;;10.99;100.00;100622.81;5030151;28;20038;-78
2024/02/14 08:40:21;;;;;;;3.88;2.10;;;7.90;99.90;;;10.89;100.00;100617.81;5021580;28;20071;-78
2024/02/14 08:42:47;;;;;;;5.03;1.67;;;8.00;99.90;;;10.89;100.00;100617.81;5030877;28;20041;-79
2024/02/14 08:45:13;;;;;;;4.30;1.90;;;8.00;99.90;;;10.91;100.00;100631.25;5030615;28;20033;-79
2024/02/14 08:47:39;;;;;;;5.18;1.80;;;8.00;99.90;;;11.19;100.00;100627.28;5030035;28;20060;-79
2024/02/14 08:50:05;;;;;;;4.75;1.80;;;8.00;99.90;;;10.81;100.00;100633.59;5011102;28;20033;-78
2024/02/14 08:52:32;;;;;;;3.92;1.73;;;8.00;99.90;;;11.26;100.00;100628.06;5011808;28;20485;-79
2024/02/14 08:54:58;;;;;;;3.40;1.88;;;8.00;99.90;;;11.15;100.00;100639.72;5030656;28;20048;-80
2024/02/14 08:57:23;;;;;;;4.65;1.55;;;8.00;99.90;;;11.02;100.00;100635.19;5028634;28;20029;-79
2024/02/14 08:59:49;;;;;;;2.72;1.52;;;8.00;99.90;;;11.05;100.00;100638.28;5030624;28;20037;-79
2024/02/14 09:02:16;;;;;;;3.03;1.67;;;8.00;99.90;;;11.12;100.00;100642.84;5040507;28;20079;-79
2024/02/14 09:04:42;;;;;;;4.33;1.80;;;8.00;99.90;;;11.07;100.00;100641.63;5026010;28;20042;-79
2024/02/14 09:07:08;;;;;;;3.42;1.85;;;8.10;99.90;;;11.19;100.00;100640.94;5029155;28;20117;-78
2024/02/14 09:09:34;;;;;;;3.80;2.05;;;8.10;99.90;;;11.44;100.00;100640.94;5029702;28;20511;-77
2024/02/14 09:12:02;;;;;;;3.55;2.03;;;8.10;99.90;;;11.32;100.00;100640.81;5029782;28;20047;-77
2024/02/14 09:14:30;;;;;;;3.60;2.13;;;8.20;99.90;;;11.61;100.00;100646.69;5029855;28;20033;-76
2024/02/14 09:16:56;;;;;;;5.13;2.05;;;8.20;99.90;;;11.69;100.00;100652.94;5028152;28;20509;-78
2024/02/14 09:19:22;;;;;;;3.65;1.92;;;8.20;99.90;;;11.64;100.00;100646.22;5030897;28;20088;-77
2024/02/14 09:21:48;;;;;;;5.72;2.15;;;8.30;99.90;;;11.51;100.00;100641.72;5025745;28;20092;-78
2024/02/14 09:24:14;;;;;;;4.20;2.40;;;8.40;99.90;;;11.73;100.00;100643.22;5012349;28;20920;-78
2024/02/14 09:26:40;;;;;;;5.63;2.72;;;8.40;99.90;;;11.94;100.00;100647.44;5045511;28;20045;-77
2024/02/14 09:29:06;;;;;;;4.55;2.50;;;8.40;99.90;;;11.93;100.00;100649.34;5011087;28;20065;-77
2024/02/14 09:31:32;;;;;;;4.65;2.95;;;8.40;99.90;;;11.93;100.00;100654.81;5026390;28;20041;-77
2024/02/14 09:33:58;;;;;;;5.10;3.28;;;8.50;99.90;;;12.03;100.00;100650.75;5023960;28;20038;-77
2024/02/14 09:36:24;;;;;;;5.75;3.88;;;8.60;99.90;;;11.99;100.00;100652.22;5009512;28;20029;-77
2024/02/14 09:38:52;;;;;;;6.80;4.47;;;8.70;99.90;;;11.82;100.00;100654.72;5025353;28;20037;-77
2024/02/14 09:41:37;;;;;;;8.50;4.80;;;8.70;99.90;;;12.28;100.00;100677.19;5027528;28;20052;-76
2024/02/14 09:44:03;;;;;;;8.50;5.03;;;8.80;99.90;;;12.28;100.00;100663.53;5024455;28;20041;-76
2024/02/14 09:46:32;;;;;;;9.15;5.07;;;8.80;99.90;;;12.20;100.00;100665.50;5027603;28;20068;-77
2024/02/14 09:48:59;;;;;;;8.50;6.00;;;8.80;99.90;;;12.18;100.00;100662.13;5027256;28;20045;-76
2024/02/14 09:51:25;;;;;;;7.82;5.78;;;8.90;99.90;;;12.28;100.00;100655.31;5009363;28;20041;-77
2024/02/14 09:53:54;;;;;;;8.35;6.43;;;9.00;99.90;;;12.52;100.00;100657.13;5025423;28;20109;-76
2024/02/14 09:56:22;;;;;;;8.82;6.65;;;9.00;99.90;;;12.68;100.00;100675.88;5027966;28;20079;-77
2024/02/14 09:58:55;;;;;;;;;;;9.10;99.90;;;12.62;100.00;100669.41;5027655;28;20041;-77
2024/02/14 10:01:23;;;;;;;9.10;6.63;;;9.20;99.90;;;12.89;100.00;100680.03;5010246;28;20364;-77
2024/02/14 10:03:51;;;;;;;8.95;6.40;;;9.30;99.90;;;12.83;100.00;100683.69;5027391;28;20053;-77
2024/02/14 10:06:20;;;;;;;11.45;6.72;;;9.50;99.90;;;12.87;100.00;100680.28;5033754;28;20484;-77
2024/02/14 10:08:48;;;;;;;10.07;6.80;;;9.50;99.90;;;13.03;100.00;100687.00;5030487;28;20056;-77
2024/02/14 10:11:15;;;;;;;8.13;6.30;;;9.60;99.90;;;12.97;100.00;100693.38;5011024;28;20037;-77
2024/02/14 10:13:45;;;;;;;9.20;6.05;;;9.60;99.90;;;13.16;100.00;100693.34;5031816;28;20046;-78